East Linton, United Kingdom
Current Conditions -  °F | °C
As of 1:20 PM on Friday 31 Oct 2014 (Local Time) from EGPH Reporting Station
Few Clouds Few Clouds  
Wind Chill: 64°   Ceiling: Unl
Heat Index: 64°   Visibility: 6mi
Dew Point: 55°   Wind: 24mph
Humidity: 73%   Direction: 210°SSW
Pressure: 29.71"   Gusts: NA
Location:  55.99°N, 2.66°W
Report Text: EGPH 311320Z 21021KT 9999 FEW025 18/13 Q1006
Loading
Personal Weather Stations






























Interactive Weather Map
Tropical Storm Tracking
New forecast layout! Learn more

10-Day Weather Forecast

Advertisements
Track Severe Weather on mobile